sensor_id;sensor_type;location;lat;lon;timestamp;P1;durP1;ratioP1;P2;durP2;ratioP2
47429;SDS011;33181;49.246;7.372;2023-05-10T00:00:27;3.80;;;2.77;;
47429;SDS011;33181;49.246;7.372;2023-05-10T00:02:53;3.37;;;2.90;;
47429;SDS011;33181;49.246;7.372;2023-05-10T00:05:19;3.50;;;2.77;;
47429;SDS011;33181;49.246;7.372;2023-05-10T00:07:45;4.23;;;2.93;;
47429;SDS011;33181;49.246;7.372;2023-05-10T00:10:12;5.13;;;3.23;;
47429;SDS011;33181;49.246;7.372;2023-05-10T00:12:38;3.70;;;3.17;;
47429;SDS011;33181;49.246;7.372;2023-05-10T00:15:04;5.00;;;3.10;;
47429;SDS011;33181;49.246;7.372;2023-05-10T00:17:30;4.40;;;3.20;;
47429;SDS011;33181;49.246;7.372;2023-05-10T00:19:56;7.00;;;3.20;;
47429;SDS011;33181;49.246;7.372;2023-05-10T00:22:22;4.50;;;2.80;;
47429;SDS011;33181;49.246;7.372;2023-05-10T00:24:48;4.00;;;3.30;;
47429;SDS011;33181;49.246;7.372;2023-05-10T00:27:14;4.00;;;3.50;;
47429;SDS011;33181;49.246;7.372;2023-05-10T00:29:39;3.80;;;3.40;;
47429;SDS011;33181;49.246;7.372;2023-05-10T00:32:05;4.60;;;3.60;;
47429;SDS011;33181;49.246;7.372;2023-05-10T00:34:31;6.37;;;3.07;;
47429;SDS011;33181;49.246;7.372;2023-05-10T00:36:57;4.43;;;3.60;;
47429;SDS011;33181;49.246;7.372;2023-05-10T00:39:23;4.80;;;3.50;;
47429;SDS011;33181;49.246;7.372;2023-05-10T00:41:49;6.03;;;3.70;;
47429;SDS011;33181;49.246;7.372;2023-05-10T00:44:15;4.73;;;3.37;;
47429;SDS011;33181;49.246;7.372;2023-05-10T00:46:41;5.20;;;3.50;;
47429;SDS011;33181;49.246;7.372;2023-05-10T00:49:07;3.50;;;3.20;;
47429;SDS011;33181;49.246;7.372;2023-05-10T00:51:32;3.80;;;3.20;;
47429;SDS011;33181;49.246;7.372;2023-05-10T00:53:58;4.13;;;3.50;;
47429;SDS011;33181;49.246;7.372;2023-05-10T00:56:25;3.90;;;3.30;;
47429;SDS011;33181;49.246;7.372;2023-05-10T00:58:51;5.60;;;3.60;;
47429;SDS011;33181;49.246;7.372;2023-05-10T01:01:17;4.50;;;3.70;;
47429;SDS011;33181;49.246;7.372;2023-05-10T01:03:44;4.23;;;3.40;;
47429;SDS011;33181;49.246;7.372;2023-05-10T01:06:11;5.93;;;3.60;;
47429;SDS011;33181;49.246;7.372;2023-05-10T01:08:38;4.80;;;3.60;;
47429;SDS011;33181;49.246;7.372;2023-05-10T01:11:04;4.93;;;4.00;;
47429;SDS011;33181;49.246;7.372;2023-05-10T01:13:31;6.20;;;3.70;;
47429;SDS011;33181;49.246;7.372;2023-05-10T01:16:01;7.43;;;3.93;;
47429;SDS011;33181;49.246;7.372;2023-05-10T01:18:28;10.70;;;4.00;;
47429;SDS011;33181;49.246;7.372;2023-05-10T01:30:34;5.53;;;4.70;;
47429;SDS011;33181;49.246;7.372;2023-05-10T01:33:11;7.20;;;5.20;;
47429;SDS011;33181;49.246;7.372;2023-05-10T01:35:54;5.80;;;5.00;;
47429;SDS011;33181;49.246;7.372;2023-05-10T01:41:28;7.83;;;5.40;;
47429;SDS011;33181;49.246;7.372;2023-05-10T01:47:40;9.70;;;5.30;;
47429;SDS011;33181;49.246;7.372;2023-05-10T01:49:49;5.90;;;5.20;;
47429;SDS011;33181;49.246;7.372;2023-05-10T01:52:19;6.30;;;5.10;;
47429;SDS011;33181;49.246;7.372;2023-05-10T01:55:05;6.60;;;5.77;;
47429;SDS011;33181;49.246;7.372;2023-05-10T01:57:35;7.30;;;6.10;;
47429;SDS011;33181;49.246;7.372;2023-05-10T02:00:04;7.40;;;4.63;;
47429;SDS011;33181;49.246;7.372;2023-05-10T02:02:36;6.50;;;5.23;;
47429;SDS011;33181;49.246;7.372;2023-05-10T02:05:05;6.83;;;5.03;;
47429;SDS011;33181;49.246;7.372;2023-05-10T02:07:33;7.40;;;5.40;;
47429;SDS011;33181;49.246;7.372;2023-05-10T02:10:05;6.33;;;4.87;;
47429;SDS011;33181;49.246;7.372;2023-05-10T02:12:37;6.10;;;5.17;;
47429;SDS011;33181;49.246;7.372;2023-05-10T02:15:07;8.10;;;6.37;;
47429;SDS011;33181;49.246;7.372;2023-05-10T02:17:37;6.70;;;5.50;;
47429;SDS011;33181;49.246;7.372;2023-05-10T02:20:04;6.60;;;5.60;;
47429;SDS011;33181;49.246;7.372;2023-05-10T02:22:32;7.60;;;5.43;;
47429;SDS011;33181;49.246;7.372;2023-05-10T02:24:59;8.27;;;5.63;;
47429;SDS011;33181;49.246;7.372;2023-05-10T02:27:28;9.20;;;6.43;;
47429;SDS011;33181;49.246;7.372;2023-05-10T02:29:55;7.27;;;6.20;;
47429;SDS011;33181;49.246;7.372;2023-05-10T02:32:24;7.43;;;6.30;;
47429;SDS011;33181;49.246;7.372;2023-05-10T02:34:52;7.20;;;6.50;;
47429;SDS011;33181;49.246;7.372;2023-05-10T02:37:19;8.83;;;6.37;;
47429;SDS011;33181;49.246;7.372;2023-05-10T02:39:49;10.67;;;6.57;;
47429;SDS011;33181;49.246;7.372;2023-05-10T02:42:20;10.80;;;7.77;;
47429;SDS011;33181;49.246;7.372;2023-05-10T02:44:53;9.27;;;7.70;;
47429;SDS011;33181;49.246;7.372;2023-05-10T02:47:25;10.80;;;7.77;;
47429;SDS011;33181;49.246;7.372;2023-05-10T02:49:52;8.90;;;7.70;;
47429;SDS011;33181;49.246;7.372;2023-05-10T02:52:22;11.03;;;8.50;;
47429;SDS011;33181;49.246;7.372;2023-05-10T02:54:54;10.00;;;8.13;;
47429;SDS011;33181;49.246;7.372;2023-05-10T02:57:25;8.53;;;7.63;;
47429;SDS011;33181;49.246;7.372;2023-05-10T02:59:56;12.40;;;8.70;;
47429;SDS011;33181;49.246;7.372;2023-05-10T03:02:22;10.57;;;8.83;;
47429;SDS011;33181;49.246;7.372;2023-05-10T03:04:47;10.73;;;8.10;;
47429;SDS011;33181;49.246;7.372;2023-05-10T03:07:13;11.50;;;9.00;;
47429;SDS011;33181;49.246;7.372;2023-05-10T03:09:39;14.47;;;9.03;;
47429;SDS011;33181;49.246;7.372;2023-05-10T03:20:45;10.40;;;8.83;;
47429;SDS011;33181;49.246;7.372;2023-05-10T03:26:05;11.70;;;9.47;;
47429;SDS011;33181;49.246;7.372;2023-05-10T03:28:33;14.33;;;10.33;;
47429;SDS011;33181;49.246;7.372;2023-05-10T03:31:00;12.73;;;9.60;;
47429;SDS011;33181;49.246;7.372;2023-05-10T03:33:29;12.77;;;10.47;;
47429;SDS011;33181;49.246;7.372;2023-05-10T03:35:55;13.43;;;10.20;;
47429;SDS011;33181;49.246;7.372;2023-05-10T03:38:21;11.70;;;10.00;;
47429;SDS011;33181;49.246;7.372;2023-05-10T03:40:46;11.13;;;8.77;;
47429;SDS011;33181;49.246;7.372;2023-05-10T03:43:12;10.60;;;9.23;;
47429;SDS011;33181;49.246;7.372;2023-05-10T03:45:38;14.50;;;9.50;;
47429;SDS011;33181;49.246;7.372;2023-05-10T03:48:04;12.60;;;8.90;;
47429;SDS011;33181;49.246;7.372;2023-05-10T03:50:30;11.80;;;9.10;;
47429;SDS011;33181;49.246;7.372;2023-05-10T03:52:55;13.73;;;9.20;;
47429;SDS011;33181;49.246;7.372;2023-05-10T03:55:22;11.77;;;9.00;;
47429;SDS011;33181;49.246;7.372;2023-05-10T03:57:50;11.87;;;8.90;;
47429;SDS011;33181;49.246;7.372;2023-05-10T04:00:18;10.90;;;9.00;;
47429;SDS011;33181;49.246;7.372;2023-05-10T04:02:45;12.90;;;9.17;;
47429;SDS011;33181;49.246;7.372;2023-05-10T04:05:11;11.03;;;8.73;;
47429;SDS011;33181;49.246;7.372;2023-05-10T04:07:37;11.17;;;8.90;;
47429;SDS011;33181;49.246;7.372;2023-05-10T04:10:03;11.83;;;8.23;;
47429;SDS011;33181;49.246;7.372;2023-05-10T04:12:29;9.90;;;8.30;;
47429;SDS011;33181;49.246;7.372;2023-05-10T04:14:55;12.00;;;8.60;;
47429;SDS011;33181;49.246;7.372;2023-05-10T04:17:21;12.80;;;8.37;;
47429;SDS011;33181;49.246;7.372;2023-05-10T04:19:47;10.50;;;8.30;;
47429;SDS011;33181;49.246;7.372;2023-05-10T04:22:12;8.90;;;7.90;;
47429;SDS011;33181;49.246;7.372;2023-05-10T04:24:38;10.57;;;8.30;;
47429;SDS011;33181;49.246;7.372;2023-05-10T04:27:04;9.93;;;7.90;;
47429;SDS011;33181;49.246;7.372;2023-05-10T04:29:30;12.80;;;9.10;;
47429;SDS011;33181;49.246;7.372;2023-05-10T04:31:56;14.67;;;8.40;;
47429;SDS011;33181;49.246;7.372;2023-05-10T04:34:23;10.50;;;8.40;;
47429;SDS011;33181;49.246;7.372;2023-05-10T04:36:48;8.70;;;7.40;;
47429;SDS011;33181;49.246;7.372;2023-05-10T04:39:14;8.93;;;7.23;;
47429;SDS011;33181;49.246;7.372;2023-05-10T04:41:40;8.50;;;7.20;;
47429;SDS011;33181;49.246;7.372;2023-05-10T04:44:06;9.30;;;6.57;;
47429;SDS011;33181;49.246;7.372;2023-05-10T04:46:32;8.43;;;6.67;;
47429;SDS011;33181;49.246;7.372;2023-05-10T04:48:57;7.40;;;6.43;;
47429;SDS011;33181;49.246;7.372;2023-05-10T04:51:24;8.30;;;6.20;;
47429;SDS011;33181;49.246;7.372;2023-05-10T04:53:50;6.63;;;5.90;;
47429;SDS011;33181;49.246;7.372;2023-05-10T04:56:15;6.80;;;6.10;;
47429;SDS011;33181;49.246;7.372;2023-05-10T04:58:41;6.23;;;5.50;;
47429;SDS011;33181;49.246;7.372;2023-05-10T05:01:08;8.33;;;6.00;;
47429;SDS011;33181;49.246;7.372;2023-05-10T05:03:35;8.03;;;6.23;;
47429;SDS011;33181;49.246;7.372;2023-05-10T05:06:01;7.20;;;5.93;;
47429;SDS011;33181;49.246;7.372;2023-05-10T05:08:28;6.27;;;5.67;;
47429;SDS011;33181;49.246;7.372;2023-05-10T05:10:53;9.30;;;5.03;;
47429;SDS011;33181;49.246;7.372;2023-05-10T05:13:19;5.47;;;4.80;;
47429;SDS011;33181;49.246;7.372;2023-05-10T05:15:45;5.50;;;4.53;;
47429;SDS011;33181;49.246;7.372;2023-05-10T05:18:11;7.97;;;5.00;;
47429;SDS011;33181;49.246;7.372;2023-05-10T05:20:37;5.90;;;4.30;;
47429;SDS011;33181;49.246;7.372;2023-05-10T05:23:03;7.07;;;4.80;;
47429;SDS011;33181;49.246;7.372;2023-05-10T05:25:29;7.87;;;4.97;;
47429;SDS011;33181;49.246;7.372;2023-05-10T05:27:55;6.03;;;4.90;;
47429;SDS011;33181;49.246;7.372;2023-05-10T05:30:20;5.27;;;4.77;;
47429;SDS011;33181;49.246;7.372;2023-05-10T05:32:47;6.40;;;4.90;;
47429;SDS011;33181;49.246;7.372;2023-05-10T05:35:14;5.57;;;4.40;;
47429;SDS011;33181;49.246;7.372;2023-05-10T05:37:40;5.37;;;4.70;;
47429;SDS011;33181;49.246;7.372;2023-05-10T05:40:06;5.40;;;4.63;;
47429;SDS011;33181;49.246;7.372;2023-05-10T05:42:33;4.90;;;4.30;;
47429;SDS011;33181;49.246;7.372;2023-05-10T05:44:59;8.47;;;4.63;;
47429;SDS011;33181;49.246;7.372;2023-05-10T05:47:25;5.87;;;4.40;;
47429;SDS011;33181;49.246;7.372;2023-05-10T05:49:51;5.67;;;4.50;;
47429;SDS011;33181;49.246;7.372;2023-05-10T05:52:16;4.50;;;3.70;;
47429;SDS011;33181;49.246;7.372;2023-05-10T05:54:44;6.23;;;4.87;;
47429;SDS011;33181;49.246;7.372;2023-05-10T05:57:10;7.73;;;4.30;;
47429;SDS011;33181;49.246;7.372;2023-05-10T05:59:36;4.70;;;4.23;;
47429;SDS011;33181;49.246;7.372;2023-05-10T06:02:06;6.63;;;5.00;;
47429;SDS011;33181;49.246;7.372;2023-05-10T06:04:34;6.70;;;4.70;;
47429;SDS011;33181;49.246;7.372;2023-05-10T06:07:00;6.60;;;4.73;;
47429;SDS011;33181;49.246;7.372;2023-05-10T06:09:26;6.53;;;5.57;;
47429;SDS011;33181;49.246;7.372;2023-05-10T06:11:52;5.40;;;4.90;;
47429;SDS011;33181;49.246;7.372;2023-05-10T06:14:19;5.50;;;4.80;;
47429;SDS011;33181;49.246;7.372;2023-05-10T06:16:46;5.90;;;5.07;;
47429;SDS011;33181;49.246;7.372;2023-05-10T06:19:11;5.33;;;4.60;;
47429;SDS011;33181;49.246;7.372;2023-05-10T06:21:37;5.20;;;4.70;;
47429;SDS011;33181;49.246;7.372;2023-05-10T06:24:03;6.80;;;4.40;;
47429;SDS011;33181;49.246;7.372;2023-05-10T06:26:31;5.13;;;4.63;;
47429;SDS011;33181;49.246;7.372;2023-05-10T06:28:58;4.83;;;4.33;;
47429;SDS011;33181;49.246;7.372;2023-05-10T06:31:24;9.77;;;4.43;;
47429;SDS011;33181;49.246;7.372;2023-05-10T06:33:50;4.80;;;4.30;;
47429;SDS011;33181;49.246;7.372;2023-05-10T06:36:16;4.70;;;4.00;;
47429;SDS011;33181;49.246;7.372;2023-05-10T06:38:42;4.77;;;4.23;;
47429;SDS011;33181;49.246;7.372;2023-05-10T06:41:08;5.03;;;4.33;;
47429;SDS011;33181;49.246;7.372;2023-05-10T06:43:34;7.30;;;4.07;;
47429;SDS011;33181;49.246;7.372;2023-05-10T06:46:00;5.67;;;3.67;;
47429;SDS011;33181;49.246;7.372;2023-05-10T06:48:25;5.20;;;3.83;;
47429;SDS011;33181;49.246;7.372;2023-05-10T06:50:52;4.03;;;3.43;;
47429;SDS011;33181;49.246;7.372;2023-05-10T06:53:17;4.27;;;3.40;;
47429;SDS011;33181;49.246;7.372;2023-05-10T06:55:43;3.87;;;3.33;;
47429;SDS011;33181;49.246;7.372;2023-05-10T06:58:09;4.40;;;3.00;;
47429;SDS011;33181;49.246;7.372;2023-05-10T07:00:35;3.90;;;3.20;;
47429;SDS011;33181;49.246;7.372;2023-05-10T07:03:05;4.70;;;3.17;;
47429;SDS011;33181;49.246;7.372;2023-05-10T07:05:31;4.80;;;2.73;;
47429;SDS011;33181;49.246;7.372;2023-05-10T07:07:57;3.40;;;2.70;;
47429;SDS011;33181;49.246;7.372;2023-05-10T07:10:23;7.23;;;3.00;;
47429;SDS011;33181;49.246;7.372;2023-05-10T07:12:49;4.00;;;2.80;;
47429;SDS011;33181;49.246;7.372;2023-05-10T07:15:15;2.80;;;2.50;;
47429;SDS011;33181;49.246;7.372;2023-05-10T07:17:42;3.60;;;2.20;;
47429;SDS011;33181;49.246;7.372;2023-05-10T07:20:07;6.23;;;3.63;;
47429;SDS011;33181;49.246;7.372;2023-05-10T07:22:34;3.43;;;2.53;;
47429;SDS011;33181;49.246;7.372;2023-05-10T07:25:00;3.10;;;2.30;;
47429;SDS011;33181;49.246;7.372;2023-05-10T07:27:27;3.90;;;2.40;;
47429;SDS011;33181;49.246;7.372;2023-05-10T07:29:53;3.40;;;2.40;;
47429;SDS011;33181;49.246;7.372;2023-05-10T07:32:19;3.13;;;2.40;;
47429;SDS011;33181;49.246;7.372;2023-05-10T07:34:46;3.50;;;2.60;;
47429;SDS011;33181;49.246;7.372;2023-05-10T07:37:12;4.20;;;3.00;;
47429;SDS011;33181;49.246;7.372;2023-05-10T07:39:38;6.50;;;2.90;;
47429;SDS011;33181;49.246;7.372;2023-05-10T07:42:06;5.50;;;2.70;;
47429;SDS011;33181;49.246;7.372;2023-05-10T07:44:33;7.23;;;3.27;;
47429;SDS011;33181;49.246;7.372;2023-05-10T07:46:59;2.90;;;2.60;;
47429;SDS011;33181;49.246;7.372;2023-05-10T07:49:25;4.53;;;2.43;;
47429;SDS011;33181;49.246;7.372;2023-05-10T07:51:51;3.97;;;2.50;;
47429;SDS011;33181;49.246;7.372;2023-05-10T07:54:17;2.57;;;2.17;;
47429;SDS011;33181;49.246;7.372;2023-05-10T07:56:44;7.33;;;2.13;;
47429;SDS011;33181;49.246;7.372;2023-05-10T07:59:14;2.80;;;2.10;;
47429;SDS011;33181;49.246;7.372;2023-05-10T08:01:42;2.53;;;1.80;;
47429;SDS011;33181;49.246;7.372;2023-05-10T08:04:09;2.30;;;1.90;;
47429;SDS011;33181;49.246;7.372;2023-05-10T08:06:34;3.37;;;2.30;;
47429;SDS011;33181;49.246;7.372;2023-05-10T08:09:00;3.03;;;2.20;;
47429;SDS011;33181;49.246;7.372;2023-05-10T08:11:27;5.60;;;2.10;;
47429;SDS011;33181;49.246;7.372;2023-05-10T08:13:53;3.40;;;2.07;;
47429;SDS011;33181;49.246;7.372;2023-05-10T08:16:19;2.77;;;2.10;;
47429;SDS011;33181;49.246;7.372;2023-05-10T08:18:46;3.20;;;2.10;;
47429;SDS011;33181;49.246;7.372;2023-05-10T08:21:12;3.40;;;2.00;;
47429;SDS011;33181;49.246;7.372;2023-05-10T08:23:39;3.50;;;2.10;;
47429;SDS011;33181;49.246;7.372;2023-05-10T08:26:05;3.57;;;1.90;;
47429;SDS011;33181;49.246;7.372;2023-05-10T08:28:31;3.17;;;1.93;;
47429;SDS011;33181;49.246;7.372;2023-05-10T08:30:57;2.93;;;1.90;;
47429;SDS011;33181;49.246;7.372;2023-05-10T08:33:23;2.43;;;2.03;;
47429;SDS011;33181;49.246;7.372;2023-05-10T08:35:49;3.87;;;2.10;;
47429;SDS011;33181;49.246;7.372;2023-05-10T08:38:15;2.40;;;2.10;;
47429;SDS011;33181;49.246;7.372;2023-05-10T08:40:42;3.50;;;2.53;;
47429;SDS011;33181;49.246;7.372;2023-05-10T08:43:12;4.50;;;2.30;;
47429;SDS011;33181;49.246;7.372;2023-05-10T08:45:41;3.90;;;2.60;;
47429;SDS011;33181;49.246;7.372;2023-05-10T08:48:10;4.10;;;2.60;;
47429;SDS011;33181;49.246;7.372;2023-05-10T08:50:37;6.23;;;2.70;;
47429;SDS011;33181;49.246;7.372;2023-05-10T08:53:06;3.60;;;2.40;;
47429;SDS011;33181;49.246;7.372;2023-05-10T08:55:36;5.00;;;2.80;;
47429;SDS011;33181;49.246;7.372;2023-05-10T08:58:07;6.53;;;2.70;;
47429;SDS011;33181;49.246;7.372;2023-05-10T09:00:33;6.50;;;2.70;;
47429;SDS011;33181;49.246;7.372;2023-05-10T09:03:00;3.67;;;2.20;;
47429;SDS011;33181;49.246;7.372;2023-05-10T09:05:28;5.13;;;2.60;;
47429;SDS011;33181;49.246;7.372;2023-05-10T09:07:54;5.43;;;2.40;;
47429;SDS011;33181;49.246;7.372;2023-05-10T09:10:20;4.97;;;2.47;;
47429;SDS011;33181;49.246;7.372;2023-05-10T09:12:47;6.30;;;2.50;;
47429;SDS011;33181;49.246;7.372;2023-05-10T09:15:15;5.90;;;2.40;;
47429;SDS011;33181;49.246;7.372;2023-05-10T09:17:44;5.30;;;2.33;;
47429;SDS011;33181;49.246;7.372;2023-05-10T09:20:10;4.03;;;2.57;;
47429;SDS011;33181;49.246;7.372;2023-05-10T09:22:36;3.80;;;2.83;;
47429;SDS011;33181;49.246;7.372;2023-05-10T09:25:10;6.37;;;2.93;;
47429;SDS011;33181;49.246;7.372;2023-05-10T09:27:44;4.53;;;2.90;;
47429;SDS011;33181;49.246;7.372;2023-05-10T09:30:23;7.67;;;3.00;;
47429;SDS011;33181;49.246;7.372;2023-05-10T09:32:55;6.73;;;3.13;;
47429;SDS011;33181;49.246;7.372;2023-05-10T09:35:26;5.17;;;3.07;;
47429;SDS011;33181;49.246;7.372;2023-05-10T09:37:55;6.60;;;3.13;;
47429;SDS011;33181;49.246;7.372;2023-05-10T09:40:26;6.30;;;3.10;;
47429;SDS011;33181;49.246;7.372;2023-05-10T09:42:58;6.87;;;2.97;;
47429;SDS011;33181;49.246;7.372;2023-05-10T09:45:25;7.37;;;2.93;;
47429;SDS011;33181;49.246;7.372;2023-05-10T09:47:53;5.67;;;2.90;;
47429;SDS011;33181;49.246;7.372;2023-05-10T09:50:20;6.43;;;2.37;;
47429;SDS011;33181;49.246;7.372;2023-05-10T09:55:19;3.03;;;2.10;;
47429;SDS011;33181;49.246;7.372;2023-05-10T09:57:48;3.83;;;2.30;;
47429;SDS011;33181;49.246;7.372;2023-05-10T10:00:23;5.30;;;2.00;;
47429;SDS011;33181;49.246;7.372;2023-05-10T10:02:59;3.03;;;2.10;;
47429;SDS011;33181;49.246;7.372;2023-05-10T10:05:29;5.00;;;1.90;;
47429;SDS011;33181;49.246;7.372;2023-05-10T10:07:56;3.50;;;2.10;;
47429;SDS011;33181;49.246;7.372;2023-05-10T10:10:26;5.23;;;2.30;;
47429;SDS011;33181;49.246;7.372;2023-05-10T10:12:53;6.20;;;2.10;;
47429;SDS011;33181;49.246;7.372;2023-05-10T10:15:21;4.30;;;2.20;;
47429;SDS011;33181;49.246;7.372;2023-05-10T10:17:48;7.90;;;2.80;;
47429;SDS011;33181;49.246;7.372;2023-05-10T10:20:16;7.00;;;3.00;;
47429;SDS011;33181;49.246;7.372;2023-05-10T10:22:47;4.43;;;2.30;;
47429;SDS011;33181;49.246;7.372;2023-05-10T10:25:15;3.30;;;1.80;;
47429;SDS011;33181;49.246;7.372;2023-05-10T10:27:55;3.40;;;2.13;;
47429;SDS011;33181;49.246;7.372;2023-05-10T10:30:49;3.20;;;2.03;;
47429;SDS011;33181;49.246;7.372;2023-05-10T10:36:15;5.60;;;2.10;;
47429;SDS011;33181;49.246;7.372;2023-05-10T11:08:30;3.13;;;1.77;;
47429;SDS011;33181;49.246;7.372;2023-05-10T11:13:43;2.57;;;1.77;;
47429;SDS011;33181;49.246;7.372;2023-05-10T11:16:23;3.20;;;1.60;;
47429;SDS011;33181;49.246;7.372;2023-05-10T11:19:04;3.50;;;1.70;;
47429;SDS011;33181;49.246;7.372;2023-05-10T11:21:44;2.00;;;1.50;;
47429;SDS011;33181;49.246;7.372;2023-05-10T11:24:30;3.00;;;1.67;;
47429;SDS011;33181;49.246;7.372;2023-05-10T11:26:56;6.93;;;1.90;;
47429;SDS011;33181;49.246;7.372;2023-05-10T11:29:24;4.50;;;2.10;;
47429;SDS011;33181;49.246;7.372;2023-05-10T11:31:51;2.10;;;1.77;;
47429;SDS011;33181;49.246;7.372;2023-05-10T11:34:24;2.83;;;2.13;;
47429;SDS011;33181;49.246;7.372;2023-05-10T11:36:56;2.90;;;2.00;;
47429;SDS011;33181;49.246;7.372;2023-05-10T11:39:26;2.13;;;1.60;;
47429;SDS011;33181;49.246;7.372;2023-05-10T11:41:56;4.13;;;1.77;;
47429;SDS011;33181;49.246;7.372;2023-05-10T11:44:23;3.60;;;1.80;;
47429;SDS011;33181;49.246;7.372;2023-05-10T11:47:00;2.70;;;1.60;;
47429;SDS011;33181;49.246;7.372;2023-05-10T11:49:26;3.60;;;1.63;;
47429;SDS011;33181;49.246;7.372;2023-05-10T11:51:52;3.57;;;1.80;;
47429;SDS011;33181;49.246;7.372;2023-05-10T11:54:18;4.30;;;1.90;;
47429;SDS011;33181;49.246;7.372;2023-05-10T11:56:44;3.33;;;1.80;;
47429;SDS011;33181;49.246;7.372;2023-05-10T11:59:10;2.83;;;1.90;;
47429;SDS011;33181;49.246;7.372;2023-05-10T12:01:39;5.47;;;1.80;;
47429;SDS011;33181;49.246;7.372;2023-05-10T12:04:05;3.60;;;1.97;;
47429;SDS011;33181;49.246;7.372;2023-05-10T12:06:32;2.40;;;1.70;;
47429;SDS011;33181;49.246;7.372;2023-05-10T12:09:05;2.70;;;1.80;;
47429;SDS011;33181;49.246;7.372;2023-05-10T12:11:37;2.20;;;1.60;;
47429;SDS011;33181;49.246;7.372;2023-05-10T12:14:05;2.53;;;1.60;;
47429;SDS011;33181;49.246;7.372;2023-05-10T12:16:31;2.37;;;1.70;;
47429;SDS011;33181;49.246;7.372;2023-05-10T12:18:58;2.27;;;1.60;;
47429;SDS011;33181;49.246;7.372;2023-05-10T12:21:25;5.40;;;1.80;;
47429;SDS011;33181;49.246;7.372;2023-05-10T12:23:54;2.93;;;1.80;;
47429;SDS011;33181;49.246;7.372;2023-05-10T12:26:27;3.40;;;1.80;;
47429;SDS011;33181;49.246;7.372;2023-05-10T12:28:54;4.17;;;2.03;;
47429;SDS011;33181;49.246;7.372;2023-05-10T12:31:48;1.90;;;1.60;;
47429;SDS011;33181;49.246;7.372;2023-05-10T12:34:26;2.17;;;1.60;;
47429;SDS011;33181;49.246;7.372;2023-05-10T12:37:01;3.40;;;1.60;;
47429;SDS011;33181;49.246;7.372;2023-05-10T12:39:38;3.50;;;1.70;;
47429;SDS011;33181;49.246;7.372;2023-05-10T12:42:08;4.23;;;2.43;;
47429;SDS011;33181;49.246;7.372;2023-05-10T12:44:35;2.60;;;1.90;;
47429;SDS011;33181;49.246;7.372;2023-05-10T12:47:01;2.83;;;1.60;;
47429;SDS011;33181;49.246;7.372;2023-05-10T12:49:26;3.40;;;2.30;;
47429;SDS011;33181;49.246;7.372;2023-05-10T12:51:52;7.70;;;2.17;;
47429;SDS011;33181;49.246;7.372;2023-05-10T12:54:18;2.63;;;1.60;;
47429;SDS011;33181;49.246;7.372;2023-05-10T12:56:44;5.27;;;1.90;;
47429;SDS011;33181;49.246;7.372;2023-05-10T12:59:10;2.33;;;1.60;;
47429;SDS011;33181;49.246;7.372;2023-05-10T13:01:35;2.77;;;1.87;;
47429;SDS011;33181;49.246;7.372;2023-05-10T13:04:01;7.53;;;1.60;;
47429;SDS011;33181;49.246;7.372;2023-05-10T13:06:29;2.00;;;1.50;;
47429;SDS011;33181;49.246;7.372;2023-05-10T13:08:56;9.00;;;3.40;;
47429;SDS011;33181;49.246;7.372;2023-05-10T13:11:22;5.73;;;2.13;;
47429;SDS011;33181;49.246;7.372;2023-05-10T13:13:48;2.13;;;1.60;;
47429;SDS011;33181;49.246;7.372;2023-05-10T13:16:14;2.63;;;1.83;;
47429;SDS011;33181;49.246;7.372;2023-05-10T13:18:40;2.27;;;1.63;;
47429;SDS011;33181;49.246;7.372;2023-05-10T13:21:06;2.63;;;1.57;;
47429;SDS011;33181;49.246;7.372;2023-05-10T13:23:33;3.40;;;1.90;;
47429;SDS011;33181;49.246;7.372;2023-05-10T13:25:59;2.17;;;1.73;;
47429;SDS011;33181;49.246;7.372;2023-05-10T13:28:25;2.70;;;1.70;;
47429;SDS011;33181;49.246;7.372;2023-05-10T13:30:51;2.93;;;1.63;;
47429;SDS011;33181;49.246;7.372;2023-05-10T13:33:17;3.87;;;1.70;;
47429;SDS011;33181;49.246;7.372;2023-05-10T13:35:43;2.33;;;1.50;;
47429;SDS011;33181;49.246;7.372;2023-05-10T13:38:10;2.40;;;1.63;;
47429;SDS011;33181;49.246;7.372;2023-05-10T13:40:35;2.07;;;1.50;;
47429;SDS011;33181;49.246;7.372;2023-05-10T13:43:01;4.20;;;1.73;;
47429;SDS011;33181;49.246;7.372;2023-05-10T13:45:27;2.27;;;1.47;;
47429;SDS011;33181;49.246;7.372;2023-05-10T13:47:53;2.77;;;1.40;;
47429;SDS011;33181;49.246;7.372;2023-05-10T13:50:19;2.57;;;1.50;;
47429;SDS011;33181;49.246;7.372;2023-05-10T13:52:45;2.60;;;1.83;;
47429;SDS011;33181;49.246;7.372;2023-05-10T13:55:12;2.17;;;1.40;;
47429;SDS011;33181;49.246;7.372;2023-05-10T13:57:38;2.27;;;1.50;;
47429;SDS011;33181;49.246;7.372;2023-05-10T14:00:04;6.73;;;1.70;;
47429;SDS011;33181;49.246;7.372;2023-05-10T14:02:30;3.17;;;1.40;;
47429;SDS011;33181;49.246;7.372;2023-05-10T14:04:56;2.90;;;1.60;;
47429;SDS011;33181;49.246;7.372;2023-05-10T14:07:22;1.80;;;1.50;;
47429;SDS011;33181;49.246;7.372;2023-05-10T14:09:48;2.13;;;1.50;;
47429;SDS011;33181;49.246;7.372;2023-05-10T14:12:14;3.37;;;1.70;;
47429;SDS011;33181;49.246;7.372;2023-05-10T14:14:40;2.87;;;1.50;;
47429;SDS011;33181;49.246;7.372;2023-05-10T14:17:06;2.30;;;1.60;;
47429;SDS011;33181;49.246;7.372;2023-05-10T14:19:31;3.30;;;1.60;;
47429;SDS011;33181;49.246;7.372;2023-05-10T14:21:59;5.45;;;1.90;;
47429;SDS011;33181;49.246;7.372;2023-05-10T14:24:25;3.73;;;1.70;;
47429;SDS011;33181;49.246;7.372;2023-05-10T14:26:51;3.17;;;1.53;;
47429;SDS011;33181;49.246;7.372;2023-05-10T14:29:19;2.63;;;1.60;;
47429;SDS011;33181;49.246;7.372;2023-05-10T14:31:45;3.47;;;1.73;;
47429;SDS011;33181;49.246;7.372;2023-05-10T14:34:11;2.03;;;1.30;;
47429;SDS011;33181;49.246;7.372;2023-05-10T14:36:37;2.60;;;1.50;;
47429;SDS011;33181;49.246;7.372;2023-05-10T14:39:03;2.07;;;1.50;;
47429;SDS011;33181;49.246;7.372;2023-05-10T14:41:29;2.43;;;1.50;;
47429;SDS011;33181;49.246;7.372;2023-05-10T14:43:55;3.83;;;1.60;;
47429;SDS011;33181;49.246;7.372;2023-05-10T14:46:21;2.90;;;1.90;;
47429;SDS011;33181;49.246;7.372;2023-05-10T14:48:47;4.80;;;1.60;;
47429;SDS011;33181;49.246;7.372;2023-05-10T14:51:12;4.40;;;1.50;;
47429;SDS011;33181;49.246;7.372;2023-05-10T14:53:38;2.57;;;1.70;;
47429;SDS011;33181;49.246;7.372;2023-05-10T14:56:04;2.00;;;1.60;;
47429;SDS011;33181;49.246;7.372;2023-05-10T14:58:31;3.40;;;1.87;;
47429;SDS011;33181;49.246;7.372;2023-05-10T15:00:57;3.60;;;1.60;;
47429;SDS011;33181;49.246;7.372;2023-05-10T15:03:23;2.13;;;1.60;;
47429;SDS011;33181;49.246;7.372;2023-05-10T15:05:52;2.33;;;1.40;;
47429;SDS011;33181;49.246;7.372;2023-05-10T15:08:18;3.73;;;1.50;;
47429;SDS011;33181;49.246;7.372;2023-05-10T15:10:45;1.60;;;1.30;;
47429;SDS011;33181;49.246;7.372;2023-05-10T15:13:11;2.23;;;1.33;;
47429;SDS011;33181;49.246;7.372;2023-05-10T15:15:37;2.50;;;1.50;;
47429;SDS011;33181;49.246;7.372;2023-05-10T15:18:03;3.77;;;1.50;;
47429;SDS011;33181;49.246;7.372;2023-05-10T15:20:30;2.33;;;1.40;;
47429;SDS011;33181;49.246;7.372;2023-05-10T15:22:56;2.00;;;1.40;;
47429;SDS011;33181;49.246;7.372;2023-05-10T15:25:22;1.80;;;1.37;;
47429;SDS011;33181;49.246;7.372;2023-05-10T15:27:48;1.90;;;1.30;;
47429;SDS011;33181;49.246;7.372;2023-05-10T15:30:14;2.50;;;1.50;;
47429;SDS011;33181;49.246;7.372;2023-05-10T15:32:40;1.70;;;1.30;;
47429;SDS011;33181;49.246;7.372;2023-05-10T15:35:07;1.70;;;1.40;;
47429;SDS011;33181;49.246;7.372;2023-05-10T15:37:35;2.27;;;1.50;;
47429;SDS011;33181;49.246;7.372;2023-05-10T15:40:04;1.97;;;1.30;;
47429;SDS011;33181;49.246;7.372;2023-05-10T15:42:30;1.90;;;1.33;;
47429;SDS011;33181;49.246;7.372;2023-05-10T15:44:57;2.63;;;1.50;;
47429;SDS011;33181;49.246;7.372;2023-05-10T15:47:23;2.73;;;1.50;;
47429;SDS011;33181;49.246;7.372;2023-05-10T15:49:50;2.57;;;1.50;;
47429;SDS011;33181;49.246;7.372;2023-05-10T15:52:16;3.70;;;1.47;;